Terminal Aerodrome Forecast
Issued by NWS Hastings, NE

Home | Current Version | Previous Version | Text Only | Print | Product List | Glossary On
Versions: 1 2 3 4 5 6 7 8 9 10 11 12 13 14 15 16 17 18 19
000
FTUS43 KGID 252341
TAFGRI
TAF
KGRI 252341Z 2600/2624 09006KT P6SM SKC
     FM260800 12007KT 5SM BR SCT009
     FM261000 13006KT 1SM BR SCT004 OVC006
     FM261600 15005KT P6SM SCT010
     FM261800 VRB06KT P6SM SKC=

USA.gov is the U.S. government's official web portal to all federal, state and local government web resources and services.